createdAt,value
2017-12-12T00:00:44.375Z,84.00
2017-12-12T00:03:12.387Z,83.40
2017-12-12T00:05:41.195Z,82.60
2017-12-12T00:08:09.974Z,82.00
2017-12-12T00:10:38.011Z,82.00
2017-12-12T00:13:06.023Z,81.40
2017-12-12T00:15:34.064Z,82.10
2017-12-12T00:18:02.256Z,81.90
2017-12-12T00:20:30.311Z,81.50
2017-12-12T00:22:59.090Z,81.20
2017-12-12T00:25:27.992Z,81.20
2017-12-12T00:27:56.027Z,80.60
2017-12-12T00:30:24.054Z,80.50
2017-12-12T00:32:52.091Z,80.90
2017-12-12T00:35:20.110Z,81.40
2017-12-12T00:37:48.163Z,81.00
2017-12-12T00:40:16.175Z,81.20
2017-12-12T00:42:44.195Z,81.60
2017-12-12T00:45:12.983Z,81.20
2017-12-12T00:47:40.996Z,81.10
2017-12-12T00:50:09.026Z,80.70
2017-12-12T00:52:37.043Z,80.90
2017-12-12T00:55:05.885Z,80.10
2017-12-12T00:57:33.898Z,80.10
2017-12-12T01:00:01.914Z,80.70
2017-12-12T01:02:30.707Z,80.40
2017-12-12T01:04:58.751Z,80.40
2017-12-12T01:07:26.780Z,79.90
2017-12-12T01:09:55.603Z,80.70
2017-12-12T01:12:23.659Z,80.50
2017-12-12T01:14:51.692Z,80.20
2017-12-12T01:17:19.732Z,79.30
2017-12-12T01:19:48.526Z,78.90
2017-12-12T01:22:17.342Z,79.40
2017-12-12T01:24:46.140Z,78.90
2017-12-12T01:27:14.915Z,78.70
2017-12-12T01:29:42.995Z,78.70
2017-12-12T01:32:10.967Z,79.10
2017-12-12T01:34:39.033Z,78.50
2017-12-12T01:37:07.039Z,78.60
2017-12-12T01:39:35.060Z,78.60
2017-12-12T01:42:03.858Z,78.70
2017-12-12T01:44:32.634Z,78.30
2017-12-12T01:47:00.668Z,78.20
2017-12-12T01:49:28.678Z,78.60
2017-12-12T01:51:56.723Z,77.60
2017-12-12T01:54:24.787Z,78.30
2017-12-12T01:56:53.619Z,78.20
2017-12-12T01:59:21.657Z,78.10
2017-12-12T02:01:49.723Z,77.30
2017-12-12T02:04:17.831Z,78.20
2017-12-12T02:06:45.847Z,78.60
2017-12-12T02:09:13.903Z,78.10
2017-12-12T02:11:42.687Z,79.40
2017-12-12T02:14:12.209Z,77.60
2017-12-12T02:16:40.248Z,77.50
2017-12-12T02:19:08.266Z,78.50
2017-12-12T02:21:36.503Z,78.10
2017-12-12T02:24:04.523Z,78.70
2017-12-12T02:26:34.172Z,78.60
2017-12-12T02:29:02.216Z,78.50
2017-12-12T02:31:30.227Z,77.90
2017-12-12T02:33:59.772Z,78.20
2017-12-12T02:36:28.554Z,77.20
2017-12-12T02:38:56.579Z,77.20
2017-12-12T02:41:24.589Z,76.80
2017-12-12T02:43:52.874Z,77.50
2017-12-12T02:46:20.887Z,77.20
2017-12-12T02:48:48.911Z,76.10
2017-12-12T02:51:17.005Z,76.50
2017-12-12T02:53:46.983Z,76.00
2017-12-12T02:56:15.127Z,75.00
2017-12-12T02:58:43.156Z,74.30
2017-12-12T03:01:11.158Z,74.10
2017-12-12T03:03:39.959Z,75.00
2017-12-12T03:06:08.738Z,74.00
2017-12-12T03:08:36.779Z,73.90
2017-12-12T03:11:04.794Z,74.00
2017-12-12T03:13:32.847Z,74.60
2017-12-12T03:16:00.875Z,75.30
2017-12-12T03:18:28.886Z,77.90
2017-12-12T03:20:57.687Z,78.70
2017-12-12T03:23:26.471Z,78.70
2017-12-12T03:25:54.496Z,78.70
2017-12-12T03:28:22.510Z,78.60
2017-12-12T03:30:50.552Z,79.50
2017-12-12T03:33:18.573Z,80.30
2017-12-12T03:35:46.590Z,81.60
2017-12-12T03:38:15.424Z,81.30
2017-12-12T03:40:43.438Z,81.10
2017-12-12T03:43:12.347Z,82.70
2017-12-12T03:45:40.367Z,81.80
2017-12-12T03:48:09.184Z,82.30
2017-12-12T03:50:37.199Z,82.30
2017-12-12T03:53:05.247Z,82.10
2017-12-12T03:55:34.019Z,81.40
2017-12-12T03:58:02.070Z,81.40
2017-12-12T04:00:30.087Z,80.00
2017-12-12T04:02:58.104Z,79.30
2017-12-12T04:05:26.138Z,79.10
2017-12-12T04:07:54.154Z,79.30
2017-12-12T04:10:22.984Z,78.40
2017-12-12T04:12:50.995Z,78.30
2017-12-12T04:15:19.043Z,79.30
2017-12-12T04:17:47.063Z,77.00
2017-12-12T04:20:15.091Z,74.10
2017-12-12T04:22:43.892Z,69.20
2017-12-12T04:25:12.707Z,67.10
2017-12-12T04:27:42.607Z,62.60
2017-12-12T04:30:10.619Z,62.50
2017-12-12T04:32:38.667Z,60.20
2017-12-12T04:35:06.684Z,58.80
2017-12-12T04:37:34.747Z,59.40
2017-12-12T04:40:03.531Z,59.20
2017-12-12T04:42:33.056Z,59.20
2017-12-12T04:45:01.084Z,59.10
2017-12-12T04:47:29.094Z,57.90
2017-12-12T04:49:57.155Z,56.30
2017-12-12T04:52:25.171Z,57.20
2017-12-12T04:54:53.203Z,59.40
2017-12-12T04:57:21.243Z,57.60
2017-12-12T04:59:49.303Z,57.90
2017-12-12T05:02:17.347Z,57.90
2017-12-12T05:04:46.137Z,55.70
2017-12-12T05:07:14.919Z,55.70
2017-12-12T05:09:42.947Z,55.70
2017-12-12T05:12:10.963Z,55.60
2017-12-12T05:14:39.011Z,55.30
2017-12-12T05:17:07.023Z,56.10
2017-12-12T05:19:35.042Z,55.70
2017-12-12T05:22:03.070Z,55.60
2017-12-12T05:24:31.086Z,55.50
2017-12-12T05:26:59.110Z,55.90
2017-12-12T05:29:27.894Z,55.50
2017-12-12T05:31:55.938Z,55.40
2017-12-12T05:34:23.952Z,56.30
2017-12-12T05:36:51.970Z,55.90
2017-12-12T05:39:20.019Z,56.10
2017-12-12T05:41:48.031Z,54.80
2017-12-12T05:44:16.086Z,55.00
2017-12-12T05:46:44.116Z,55.90
2017-12-12T05:49:12.121Z,56.10
2017-12-12T05:51:40.155Z,54.90
2017-12-12T05:54:08.939Z,55.30
2017-12-12T05:56:36.970Z,55.30
2017-12-12T05:59:04.982Z,55.30
2017-12-12T06:01:33.019Z,56.30
2017-12-12T06:04:01.794Z,54.80
2017-12-12T06:06:29.831Z,54.80
2017-12-12T06:08:57.846Z,55.90
2017-12-12T06:11:25.908Z,56.20
2017-12-12T06:13:53.926Z,56.70
2017-12-12T06:16:21.955Z,56.60
2017-12-12T06:18:49.980Z,56.70
2017-12-12T06:21:18.006Z,57.70
2017-12-12T06:23:46.031Z,58.30
2017-12-12T06:26:14.062Z,60.20
2017-12-12T06:28:42.200Z,61.30
2017-12-12T06:31:10.926Z,62.70
2017-12-12T06:33:38.943Z,62.50
2017-12-12T06:36:06.986Z,61.90
2017-12-12T06:38:35.016Z,61.40
2017-12-12T06:41:03.033Z,60.00
2017-12-12T06:43:31.278Z,59.50
2017-12-12T06:45:59.286Z,59.20
2017-12-12T06:48:27.302Z,60.20
2017-12-12T06:50:55.331Z,60.00
2017-12-12T06:53:23.363Z,59.80
2017-12-12T06:55:51.411Z,59.00
2017-12-12T06:58:19.429Z,59.10
2017-12-12T07:00:47.487Z,58.80
2017-12-12T07:03:15.499Z,59.80
2017-12-12T07:05:43.514Z,57.90
2017-12-12T07:08:12.315Z,58.70
2017-12-12T07:10:41.094Z,59.50
2017-12-12T07:13:09.143Z,59.50
2017-12-12T07:15:37.155Z,59.10
2017-12-12T07:18:05.214Z,58.50
2017-12-12T07:20:33.227Z,58.80
2017-12-12T07:23:01.251Z,59.40
2017-12-12T07:25:29.287Z,59.10
2017-12-12T07:27:57.315Z,59.00
2017-12-12T07:30:25.351Z,59.20
2017-12-12T07:32:53.363Z,58.90
2017-12-12T07:35:22.180Z,59.50
2017-12-12T07:37:50.200Z,59.40
2017-12-12T07:40:18.222Z,59.40
2017-12-12T07:42:47.422Z,60.30
2017-12-12T07:45:16.064Z,60.20
2017-12-12T07:47:44.099Z,59.80
2017-12-12T07:50:12.106Z,59.80
2017-12-12T07:52:40.911Z,60.60
2017-12-12T07:55:09.699Z,60.00
2017-12-12T07:57:37.722Z,59.90
2017-12-12T08:00:05.734Z,59.80
2017-12-12T08:02:33.771Z,59.70
2017-12-12T08:05:01.794Z,60.00
2017-12-12T08:07:29.835Z,60.00
2017-12-12T08:09:58.622Z,59.90
2017-12-12T08:12:27.410Z,61.00
2017-12-12T08:14:55.442Z,61.00
2017-12-12T08:17:23.466Z,60.60
2017-12-12T08:19:51.475Z,61.10
2017-12-12T08:22:20.279Z,60.70
2017-12-12T08:24:48.299Z,60.60
2017-12-12T08:27:16.343Z,59.80
2017-12-12T08:29:44.390Z,59.40
2017-12-12T08:32:12.415Z,61.30
2017-12-12T08:34:41.226Z,61.30
2017-12-12T08:37:09.240Z,61.20
2017-12-12T08:39:37.295Z,61.10
2017-12-12T08:42:05.307Z,60.30
2017-12-12T08:44:33.322Z,59.70
2017-12-12T08:47:01.352Z,60.00
2017-12-12T08:49:29.366Z,59.80
2017-12-12T08:51:57.407Z,59.70
2017-12-12T08:54:25.418Z,60.20
2017-12-12T08:56:53.466Z,60.20
2017-12-12T08:59:22.247Z,60.60
2017-12-12T09:01:50.267Z,60.40
2017-12-12T09:04:18.306Z,59.60
2017-12-12T09:06:46.319Z,58.40
2017-12-12T09:09:14.354Z,58.90
2017-12-12T09:11:42.375Z,59.10
2017-12-12T09:14:11.284Z,58.40
2017-12-12T09:16:40.062Z,59.40
2017-12-12T09:19:08.075Z,59.40
2017-12-12T09:21:36.110Z,58.80
2017-12-12T09:24:04.131Z,59.10
2017-12-12T09:26:32.931Z,59.90
2017-12-12T09:29:01.709Z,58.90
2017-12-12T09:31:29.755Z,58.90
2017-12-12T09:33:57.771Z,58.10
2017-12-12T09:36:25.785Z,57.40
2017-12-12T09:38:54.596Z,58.30
2017-12-12T09:41:22.612Z,58.30
2017-12-12T09:43:50.662Z,58.20
2017-12-12T09:46:18.683Z,57.40
2017-12-12T09:48:46.700Z,57.00
2017-12-12T09:51:14.726Z,57.10
2017-12-12T09:53:42.742Z,57.60
2017-12-12T09:56:10.795Z,57.60
2017-12-12T09:58:38.818Z,56.80
2017-12-12T10:01:06.831Z,57.70
2017-12-12T10:03:35.632Z,56.90
2017-12-12T10:06:04.406Z,56.60
2017-12-12T10:08:32.439Z,56.50
2017-12-12T10:11:00.455Z,56.60
2017-12-12T10:13:28.507Z,56.70
2017-12-12T10:15:56.527Z,55.90
2017-12-12T10:18:24.547Z,56.60
2017-12-12T10:20:53.351Z,56.60
2017-12-12T10:23:22.129Z,55.80
2017-12-12T10:25:50.190Z,55.80
2017-12-12T10:28:18.218Z,56.20
2017-12-12T10:30:46.279Z,56.20
2017-12-12T10:33:14.311Z,56.60
2017-12-12T10:35:42.327Z,56.20
2017-12-12T10:38:10.358Z,57.10
2017-12-12T10:40:39.147Z,56.00
2017-12-12T10:43:07.971Z,56.50
2017-12-12T10:45:35.978Z,56.50
2017-12-12T10:48:03.990Z,56.20
2017-12-12T10:50:33.530Z,57.60
2017-12-12T10:53:01.759Z,57.60
2017-12-12T10:55:29.774Z,55.80
2017-12-12T10:57:57.791Z,57.00
2017-12-12T11:00:26.590Z,55.90
2017-12-12T11:02:54.599Z,55.90
2017-12-12T11:05:22.691Z,56.30
2017-12-12T11:07:50.738Z,56.50
2017-12-12T11:10:19.558Z,56.60
2017-12-12T11:12:47.618Z,56.50
2017-12-12T11:15:15.679Z,56.90
2017-12-12T11:17:43.719Z,57.10
2017-12-12T11:20:11.734Z,56.40
2017-12-12T11:22:40.682Z,56.10
2017-12-12T11:25:09.462Z,56.50
2017-12-12T11:27:37.491Z,56.40
2017-12-12T11:30:05.514Z,55.80
2017-12-12T11:32:33.554Z,55.30
2017-12-12T11:35:01.591Z,55.30
2017-12-12T11:37:37.251Z,55.40
2017-12-12T11:40:05.275Z,55.30
2017-12-12T11:42:33.314Z,54.40
2017-12-12T11:45:01.346Z,54.70
2017-12-12T11:47:29.359Z,53.10
2017-12-12T11:49:57.387Z,52.10
2017-12-12T11:52:25.399Z,52.60
2017-12-12T11:54:53.439Z,51.70
2017-12-12T11:57:21.450Z,50.60
2017-12-12T11:59:50.258Z,51.30
2017-12-12T12:02:19.054Z,52.60
2017-12-12T12:04:47.860Z,52.20
2017-12-12T12:07:16.646Z,53.90
2017-12-12T12:09:45.441Z,52.80
2017-12-12T12:12:13.458Z,52.80
2017-12-12T12:14:41.495Z,53.20
2017-12-12T12:17:09.511Z,53.90
2017-12-12T12:19:38.323Z,54.70
2017-12-12T12:22:06.345Z,54.70
2017-12-12T12:24:34.363Z,54.00
2017-12-12T12:27:03.159Z,53.10
2017-12-12T12:29:32.678Z,52.10
2017-12-12T12:32:00.895Z,52.00
2017-12-12T12:34:28.912Z,51.90
2017-12-12T12:36:56.932Z,53.10
2017-12-12T12:39:24.971Z,51.80
2017-12-12T12:41:52.990Z,52.60
2017-12-12T12:44:21.062Z,52.40
2017-12-12T12:46:49.075Z,52.30
2017-12-12T12:49:17.867Z,51.80
2017-12-12T12:51:45.894Z,51.80
2017-12-12T12:54:13.915Z,52.60
2017-12-12T12:56:41.986Z,52.90
2017-12-12T12:59:09.995Z,53.40
2017-12-12T13:01:38.007Z,53.50
2017-12-12T13:04:06.042Z,53.70
2017-12-12T13:06:34.056Z,55.00
2017-12-12T13:09:02.851Z,53.70
2017-12-12T13:11:31.630Z,54.40
2017-12-12T13:13:59.663Z,53.80
2017-12-12T13:16:27.687Z,54.00
2017-12-12T13:18:55.750Z,54.50
2017-12-12T13:21:23.901Z,55.20
2017-12-12T13:23:52.682Z,54.40
2017-12-12T13:26:20.731Z,54.30
2017-12-12T13:28:48.738Z,54.10
2017-12-12T13:31:16.783Z,54.30
2017-12-12T13:33:44.798Z,54.70
2017-12-12T13:36:12.851Z,54.60
2017-12-12T13:38:40.883Z,55.10
2017-12-12T13:41:08.902Z,54.80
2017-12-12T13:43:36.939Z,55.00
2017-12-12T13:46:04.950Z,55.10
2017-12-12T13:51:08.204Z,55.00
2017-12-12T13:53:36.263Z,56.00
2017-12-12T13:56:05.039Z,55.50
2017-12-12T13:58:33.051Z,55.30
2017-12-12T14:01:01.852Z,56.00
2017-12-12T14:03:30.636Z,56.00
2017-12-12T14:05:58.663Z,55.90
2017-12-12T14:08:26.678Z,56.60
2017-12-12T14:10:54.714Z,56.00
2017-12-12T14:13:22.730Z,55.50
2017-12-12T14:15:50.763Z,56.00
2017-12-12T14:18:19.547Z,56.50
2017-12-12T14:20:48.414Z,56.00
2017-12-12T14:23:16.430Z,56.00
2017-12-12T14:25:44.444Z,56.40
2017-12-12T14:28:13.243Z,55.90
2017-12-12T14:30:41.296Z,55.90
2017-12-12T14:33:10.115Z,56.50
2017-12-12T14:35:38.135Z,56.40
2017-12-12T14:38:06.164Z,57.50
2017-12-12T14:40:34.177Z,56.60
2017-12-12T14:43:02.975Z,56.80
2017-12-12T14:45:31.755Z,56.90
2017-12-12T14:47:59.815Z,56.80
2017-12-12T14:50:27.831Z,56.30
2017-12-12T14:52:55.846Z,56.40
2017-12-12T14:55:23.878Z,56.30
2017-12-12T14:57:51.915Z,56.60
2017-12-12T15:00:19.935Z,58.00
2017-12-12T15:02:48.084Z,58.20
2017-12-12T15:05:16.095Z,57.60
2017-12-12T15:07:44.111Z,58.10
2017-12-12T15:10:12.143Z,58.70
2017-12-12T15:12:40.183Z,58.70
2017-12-12T15:15:08.201Z,58.70
2017-12-12T15:17:36.255Z,59.60
2017-12-12T15:20:05.035Z,59.40
2017-12-12T15:22:33.056Z,60.00
2017-12-12T15:25:01.851Z,59.70
2017-12-12T15:27:30.636Z,59.90
2017-12-12T15:29:58.666Z,59.90
2017-12-12T15:32:26.675Z,60.20
2017-12-12T15:34:54.723Z,60.70
2017-12-12T15:37:22.742Z,60.20
2017-12-12T15:39:50.771Z,60.50
2017-12-12T15:42:19.575Z,59.20
2017-12-12T15:44:48.362Z,59.00
2017-12-12T15:47:16.415Z,59.00
2017-12-12T15:49:44.426Z,59.50
2017-12-12T15:52:13.206Z,59.80
2017-12-12T15:54:41.240Z,59.80
2017-12-12T15:57:09.255Z,59.90
2017-12-12T15:59:37.307Z,60.30
2017-12-12T16:02:05.319Z,60.20
2017-12-12T16:04:33.336Z,60.40
2017-12-12T16:07:01.363Z,61.00
2017-12-12T16:09:29.375Z,60.90
2017-12-12T16:11:57.407Z,61.00
2017-12-12T16:14:25.422Z,61.50
2017-12-12T16:16:53.459Z,62.10
2017-12-12T16:19:22.245Z,62.40
2017-12-12T16:21:50.306Z,62.40
2017-12-12T16:24:18.343Z,62.10
2017-12-12T16:26:47.113Z,63.00
2017-12-12T16:29:15.163Z,63.00
2017-12-12T16:31:43.183Z,62.30
2017-12-12T16:34:12.214Z,62.80
2017-12-12T16:36:40.996Z,61.80
2017-12-12T16:39:09.804Z,62.90
2017-12-12T16:41:38.599Z,63.40
2017-12-12T16:44:07.379Z,63.90
2017-12-12T16:46:35.411Z,63.40
2017-12-12T16:49:03.427Z,63.90
2017-12-12T16:51:31.475Z,63.20
2017-12-12T16:53:59.490Z,63.00
2017-12-12T16:56:27.514Z,63.30
2017-12-12T16:58:55.546Z,63.60
2017-12-12T17:01:23.613Z,63.80
2017-12-12T17:03:51.627Z,63.90
2017-12-12T17:06:19.670Z,64.40
2017-12-12T17:08:47.720Z,63.90
2017-12-12T17:11:15.731Z,63.80
2017-12-12T17:13:44.522Z,64.70
2017-12-12T17:16:13.302Z,64.60
2017-12-12T17:18:41.339Z,64.50
2017-12-12T17:21:09.355Z,65.30
2017-12-12T17:23:37.387Z,66.10
2017-12-12T17:26:05.393Z,66.50
2017-12-12T17:28:33.451Z,66.00
2017-12-12T17:31:02.226Z,66.40
2017-12-12T17:33:30.242Z,66.40
2017-12-12T17:35:58.281Z,66.50
2017-12-12T17:38:26.291Z,66.10
2017-12-12T17:40:55.090Z,66.20
2017-12-12T17:43:23.875Z,66.50
2017-12-12T17:45:51.956Z,65.70
2017-12-12T17:48:19.942Z,65.90
2017-12-12T17:50:48.759Z,66.40
2017-12-12T17:53:30.525Z,66.40
2017-12-12T17:55:58.582Z,66.30
2017-12-12T17:58:26.598Z,66.40
2017-12-12T18:00:54.618Z,65.70
2017-12-12T18:03:23.414Z,66.30
2017-12-12T18:05:52.246Z,66.20
2017-12-12T18:08:21.014Z,66.40
2017-12-12T18:10:49.794Z,66.70
2017-12-12T18:13:17.831Z,66.30
2017-12-12T18:15:45.847Z,66.40
2017-12-12T18:18:13.898Z,67.10
2017-12-12T18:20:41.915Z,66.30
2017-12-12T18:23:09.934Z,66.50
2017-12-12T18:25:37.999Z,64.80
2017-12-12T18:28:06.003Z,64.60
2017-12-12T18:30:34.803Z,67.30
2017-12-12T18:33:04.499Z,65.20
2017-12-12T18:35:32.566Z,65.00
2017-12-12T18:38:00.580Z,64.70
2017-12-12T18:40:28.603Z,64.30
2017-12-12T18:42:56.635Z,64.00
2017-12-12T18:45:24.658Z,63.00
2017-12-12T18:47:53.467Z,64.10
2017-12-12T18:50:21.440Z,64.10
2017-12-12T18:53:05.741Z,65.30
2017-12-12T19:11:25.479Z,62.00
2017-12-12T19:13:53.536Z,63.00
2017-12-12T19:16:21.557Z,63.80
2017-12-12T19:18:49.603Z,63.30
2017-12-12T19:21:17.638Z,62.50
2017-12-12T19:23:45.732Z,62.90
2017-12-12T19:26:13.795Z,62.30
2017-12-12T19:28:41.830Z,61.90
2017-12-12T19:31:09.890Z,61.80
2017-12-12T19:33:37.905Z,62.40
2017-12-12T19:36:05.965Z,62.00
2017-12-12T19:38:33.999Z,63.00
2017-12-12T19:41:02.059Z,61.30
2017-12-12T19:43:30.858Z,61.90
2017-12-12T19:45:58.882Z,61.50
2017-12-12T19:48:26.927Z,62.10
2017-12-12T19:50:54.999Z,62.00
2017-12-12T19:53:23.028Z,63.50
2017-12-12T19:55:51.073Z,62.50
2017-12-12T19:58:19.111Z,62.10
2017-12-12T20:00:47.144Z,61.90
2017-12-12T20:03:15.191Z,62.10
2017-12-12T20:05:43.230Z,62.50
2017-12-12T20:08:12.053Z,63.10
2017-12-12T20:10:40.090Z,63.00
2017-12-12T20:13:08.159Z,63.30
2017-12-12T20:15:36.199Z,63.40
2017-12-12T20:18:04.242Z,63.60
2017-12-12T20:20:32.267Z,64.20
2017-12-12T20:23:00.407Z,64.10
2017-12-12T20:25:28.428Z,64.50
2017-12-12T20:27:56.480Z,64.80
2017-12-12T20:30:24.545Z,65.40
2017-12-12T20:32:52.586Z,65.40
2017-12-12T20:35:23.935Z,65.60
2017-12-12T20:37:52.002Z,64.80
2017-12-12T20:40:20.046Z,64.60
2017-12-12T20:42:48.079Z,64.60
2017-12-12T20:45:16.893Z,65.60
2017-12-12T20:47:45.700Z,65.50
2017-12-12T20:50:14.510Z,65.30
2017-12-12T20:52:42.542Z,65.30
2017-12-12T20:55:10.624Z,65.40
2017-12-12T20:57:38.666Z,65.30
2017-12-12T21:00:06.698Z,65.80
2017-12-12T21:02:34.780Z,66.20
2017-12-12T21:05:02.803Z,66.30
2017-12-12T21:07:36.743Z,66.10
2017-12-12T21:10:04.788Z,65.80
2017-12-12T21:12:33.606Z,66.00
2017-12-12T21:15:01.635Z,65.80
2017-12-12T21:17:29.682Z,66.40
2017-12-12T21:19:57.717Z,66.50
2017-12-12T21:22:25.770Z,66.30
2017-12-12T21:24:53.824Z,66.50
2017-12-12T21:27:22.619Z,66.60
2017-12-12T21:29:51.446Z,66.60
2017-12-12T21:32:19.484Z,66.50
2017-12-12T21:34:47.512Z,67.10
2017-12-12T21:37:15.554Z,67.40
2017-12-12T21:39:43.610Z,67.90
2017-12-12T21:42:11.683Z,68.10
2017-12-12T21:44:39.723Z,67.60
2017-12-12T21:47:08.507Z,67.80
2017-12-12T21:49:36.551Z,67.70
2017-12-12T21:52:04.581Z,67.80
2017-12-12T21:54:33.395Z,67.80
2017-12-12T21:57:01.422Z,67.70
2017-12-12T21:59:29.502Z,67.50
2017-12-12T22:01:57.531Z,67.80
2017-12-12T22:04:26.339Z,68.10
2017-12-12T22:06:55.530Z,68.00
2017-12-12T22:09:23.595Z,68.00
2017-12-12T22:11:51.627Z,67.90
2017-12-12T22:14:19.658Z,67.70
2017-12-12T22:16:47.727Z,68.00
2017-12-12T22:19:15.763Z,68.20
2017-12-12T22:21:44.565Z,69.20
2017-12-12T22:24:13.382Z,69.00
2017-12-12T22:26:42.180Z,68.70
2017-12-12T22:29:10.986Z,68.70
2017-12-12T22:31:39.039Z,68.70
2017-12-12T22:34:07.079Z,69.00
2017-12-12T22:36:35.151Z,69.40
2017-12-12T22:39:03.227Z,68.50
2017-12-12T22:41:31.260Z,68.70
2017-12-12T22:43:59.313Z,68.70
2017-12-12T22:46:27.363Z,68.90
2017-12-12T22:48:56.166Z,68.90
2017-12-12T22:51:24.975Z,69.00
2017-12-12T22:53:53.775Z,69.10
2017-12-12T22:56:22.571Z,69.10
2017-12-12T22:58:51.386Z,69.30
2017-12-12T23:01:19.407Z,69.20
2017-12-12T23:03:47.444Z,69.30
2017-12-12T23:06:16.247Z,70.00
2017-12-12T23:08:44.281Z,69.90
2017-12-12T23:11:12.327Z,70.10
2017-12-12T23:13:40.355Z,70.00
2017-12-12T23:16:08.426Z,69.90
2017-12-12T23:18:36.458Z,69.90
2017-12-12T23:21:05.399Z,69.50
2017-12-12T23:23:33.458Z,69.40
2017-12-12T23:26:03.264Z,69.50
2017-12-12T23:28:32.096Z,69.80
2017-12-12T23:31:00.126Z,69.70
2017-12-12T23:33:28.199Z,69.60
2017-12-12T23:35:56.213Z,70.40
2017-12-12T23:38:25.007Z,70.30
2017-12-12T23:40:53.046Z,69.90
2017-12-12T23:43:21.074Z,70.00
2017-12-12T23:45:49.132Z,70.10
2017-12-12T23:48:17.146Z,70.40
2017-12-12T23:50:46.202Z,70.30
2017-12-12T23:53:14.238Z,70.20
2017-12-12T23:55:42.270Z,70.60
2017-12-12T23:58:10.311Z,70.70
